Time;durP1;ratioP1;P1;durP2;ratioP2;P2;SDS_P1;SDS_P2;PMS_P1;PMS_P2;Temp;Humidity;BMP_temperature;BMP_pressure;BME280_temperature;BME280_humidity;BME280_pressure;Samples;Min_cycle;Max_cycle;Signal;HPM_P1;HPM_P2
2022/06/11 00:00:11;;;;;;;8.70;8.10;;;;;;;23.29;56.25;94481.09;6151319;28;104154;-51
2022/06/11 00:03:14;;;;;;;9.03;8.27;;;;;;;23.24;56.42;94485.84;6150099;28;103404;-52
2022/06/11 00:06:17;;;;;;;9.10;8.40;;;;;;;23.24;56.28;94478.59;6151891;28;103048;-51
2022/06/11 00:09:22;;;;;;;8.43;7.80;;;;;;;23.23;56.32;94485.06;6153217;28;104332;-52
2022/06/11 00:12:26;;;;;;;9.67;8.90;;;;;;;23.24;56.00;94497.28;6148164;28;102763;-50
2022/06/11 00:15:32;;;;;;;9.13;8.43;;;;;;;23.21;56.41;94497.16;6147647;28;104329;-51
2022/06/11 00:18:36;;;;;;;8.50;7.90;;;;;;;23.27;55.96;94493.97;6140720;28;103181;-52
2022/06/11 00:21:42;;;;;;;9.10;8.30;;;;;;;23.22;56.27;94498.72;6151914;28;103855;-51
2022/06/11 00:24:46;;;;;;;8.60;7.93;;;;;;;23.24;55.92;94494.63;6147528;28;103013;-51
2022/06/11 00:27:49;;;;;;;8.93;8.23;;;;;;;23.18;56.12;94492.47;6140994;28;103303;-51
2022/06/11 00:30:54;;;;;;;8.77;7.93;;;;;;;23.21;55.91;94486.50;6162839;28;103610;-50
2022/06/11 00:33:57;;;;;;;8.67;8.00;;;;;;;23.20;55.67;94495.63;6140964;28;103292;-51
2022/06/11 00:37:01;;;;;;;8.30;7.70;;;;;;;23.22;55.55;94496.84;6136603;28;104063;-51
2022/06/11 00:40:07;;;;;;;8.20;7.40;;;;;;;23.27;55.99;94485.97;6146595;28;103516;-51
2022/06/11 00:43:11;;;;;;;7.40;6.70;;;;;;;23.24;55.92;94491.97;6147011;28;103123;-51
2022/06/11 00:46:38;;;;;;;7.07;6.50;;;;;;;23.26;55.83;94489.75;6157578;28;103197;-51
2022/06/11 00:49:44;;;;;;;7.97;7.37;;;;;;;23.25;56.39;94479.38;6144926;28;103897;-51
2022/06/11 00:52:48;;;;;;;7.70;7.10;;;;;;;23.25;56.20;94488.19;6161717;28;103179;-51
2022/06/11 00:55:52;;;;;;;7.40;6.90;;;;;;;23.26;56.20;94486.28;6154520;28;104010;-51
2022/06/11 00:59:00;;;;;;;7.37;6.87;;;;;;;23.25;56.36;94477.50;6159899;28;104133;-51
2022/06/11 01:02:06;;;;;;;6.77;6.27;;;;;;;23.26;55.95;94481.72;6149207;28;104167;-51
2022/06/11 01:05:14;;;;;;;7.50;6.90;;;;;;;23.24;56.34;94480.50;6161244;28;103193;-50
2022/06/11 01:08:46;;;;;;;7.53;6.93;;;;;;;23.24;56.43;94475.94;6138470;28;102897;-51
2022/06/11 01:12:07;;;;;;;7.00;6.50;;;;;;;23.28;56.21;94484.84;6130351;28;104608;-51
2022/06/11 01:15:16;;;;;;;6.70;6.20;;;;;;;23.29;56.06;94480.31;6158363;28;104335;-48
2022/06/11 01:18:30;;;;;;;6.90;6.40;;;;;;;23.27;56.37;94475.28;6159487;28;104526;-48
2022/06/11 01:21:47;;;;;;;6.63;6.13;;;;;;;23.28;56.35;94484.84;6149994;28;102989;-48
2022/06/11 01:24:59;;;;;;;6.93;6.43;;;;;;;23.27;56.66;94474.50;6150494;28;103994;-48
2022/06/11 01:28:27;;;;;;;6.50;6.00;;;;;;;23.28;56.10;94482.19;6147405;28;104186;-48
2022/06/11 01:31:36;;;;;;;6.83;6.23;;;;;;;23.27;56.29;94485.97;6153843;28;103352;-48
2022/06/11 01:34:48;;;;;;;7.13;6.63;;;;;;;23.29;56.11;94483.00;6143029;28;103940;-49
2022/06/11 01:37:55;;;;;;;7.17;6.57;;;;;;;23.26;56.72;94486.28;6158314;28;104198;-48
2022/06/11 01:41:14;;;;;;;7.27;6.67;;;;;;;23.28;56.26;94482.19;6151923;28;104099;-48
2022/06/11 01:44:24;;;;;;;6.23;5.83;;;;;;;23.27;56.44;94483.28;6151482;28;103123;-49
2022/06/11 01:47:30;;;;;;;6.37;5.97;;;;;;;23.30;56.21;94485.34;6148332;28;103638;-49
2022/06/11 01:50:38;;;;;;;6.27;5.70;;;;;;;23.27;56.33;94490.50;6161188;28;103166;-49
2022/06/11 01:54:05;;;;;;;5.77;5.37;;;;;;;23.27;56.24;94485.97;6153199;28;103126;-49
2022/06/11 01:57:42;;;;;;;7.10;6.60;;;;;;;23.27;56.36;94488.63;6142029;28;103219;-49
2022/06/11 02:00:58;;;;;;;8.07;7.30;;;;;;;23.31;56.41;94486.09;6141563;28;103054;-49
2022/06/11 02:04:09;;;;;;;7.37;6.77;;;;;;;23.29;56.49;94493.66;6140548;28;104893;-49
2022/06/11 02:07:19;;;;;;;7.73;7.13;;;;;;;23.29;56.60;94486.44;6160233;28;103153;-49
2022/06/11 02:10:28;;;;;;;7.27;6.77;;;;;;;23.30;56.31;94482.66;6153350;28;103998;-49
2022/06/11 02:13:37;;;;;;;7.77;7.27;;;;;;;23.27;56.75;94485.97;6149931;28;103092;-49
2022/06/11 02:16:45;;;;;;;8.03;7.53;;;;;;;23.27;56.34;94487.84;6148150;28;103227;-49
2022/06/11 02:19:54;;;;;;;8.40;7.70;;;;;;;23.30;56.55;94496.00;6152951;28;102961;-49
2022/06/11 02:23:01;;;;;;;9.00;8.40;;;;;;;23.33;56.68;94491.91;6159609;28;104072;-49
2022/06/11 02:26:08;;;;;;;9.80;9.10;;;;;;;23.26;56.39;94492.41;6160774;28;103068;-49
2022/06/11 02:29:14;;;;;;;8.73;8.10;;;;;;;23.32;56.44;94486.88;6150828;28;103944;-49
2022/06/11 02:32:20;;;;;;;9.90;9.20;;;;;;;23.33;56.34;94494.56;6152170;28;103564;-49
2022/06/11 02:35:36;;;;;;;9.73;8.93;;;;;;;23.30;56.22;94495.22;6151342;28;103013;-49
2022/06/11 02:38:40;;;;;;;8.90;8.30;;;;;;;23.28;56.36;94495.53;6154394;28;103390;-49
2022/06/11 02:41:43;;;;;;;9.20;8.50;;;;;;;23.28;56.70;94498.19;6158103;28;103312;-49
2022/06/11 02:44:48;;;;;;;9.03;8.33;;;;;;;23.28;56.88;94495.53;6153865;28;103445;-49
2022/06/11 02:47:53;;;;;;;8.03;7.47;;;;;;;23.28;56.84;94490.19;6157698;28;104102;-49
2022/06/11 02:50:58;;;;;;;10.03;9.33;;;;;;;23.30;56.66;94493.34;6155109;28;103225;-49
2022/06/11 02:54:01;;;;;;;10.27;9.57;;;;;;;23.33;56.58;94491.13;6150731;28;104879;-49
2022/06/11 02:57:06;;;;;;;9.67;8.97;;;;;;;23.33;56.51;94494.56;6158608;28;104050;-49
2022/06/11 03:00:12;;;;;;;8.97;8.27;;;;;;;23.27;56.74;94487.84;6152304;28;103054;-49
2022/06/11 03:03:15;;;;;;;8.83;8.23;;;;;;;23.27;56.78;94495.84;6161028;28;104811;-49
2022/06/11 03:06:22;;;;;;;9.67;8.97;;;;;;;23.28;56.55;94503.53;6147872;28;103673;-49
2022/06/11 03:09:29;;;;;;;8.73;8.07;;;;;;;23.29;56.49;94502.47;6159243;28;103871;-49
2022/06/11 03:12:32;;;;;;;9.43;8.80;;;;;;;23.29;56.80;94499.78;6161188;28;103226;-49
2022/06/11 03:15:35;;;;;;;9.00;8.33;;;;;;;23.27;56.73;94496.63;6160487;28;103180;-49
2022/06/11 03:18:39;;;;;;;9.13;8.43;;;;;;;23.27;56.84;94506.53;6139797;28;103600;-49
2022/06/11 03:21:43;;;;;;;8.50;7.90;;;;;;;23.30;56.66;94506.69;6153709;28;104247;-49
2022/06/11 03:24:47;;;;;;;8.70;8.00;;;;;;;23.32;56.31;94508.25;6160623;28;104163;-48
2022/06/11 03:27:51;;;;;;;9.37;8.67;;;;;;;23.28;56.47;94514.22;6150014;28;103194;-49
2022/06/11 03:30:54;;;;;;;10.33;9.53;;;;;;;23.31;56.67;94520.81;6155910;28;104359;-49
2022/06/11 03:33:57;;;;;;;9.37;8.77;;;;;;;23.32;56.31;94513.59;6149873;28;102813;-49
2022/06/11 03:37:02;;;;;;;10.20;9.40;;;;;;;23.30;56.64;94509.34;6158612;28;103532;-49
2022/06/11 03:40:07;;;;;;;9.17;8.50;;;;;;;23.31;56.65;94518.16;6149293;28;103284;-54
2022/06/11 03:43:10;;;;;;;9.10;8.33;;;;;;;23.46;55.44;94514.09;6156148;28;102925;-54
2022/06/11 03:46:14;;;;;;;8.40;7.70;;;;;;;23.57;54.46;94512.59;6138423;28;104188;-54
2022/06/11 03:49:18;;;;;;;8.27;7.77;;;;;;;23.64;54.42;94510.19;6160252;28;103003;-54
2022/06/11 03:52:23;;;;;;;8.47;7.87;;;;;;;23.68;54.56;94511.06;6149581;28;103288;-54
2022/06/11 03:55:27;;;;;;;7.70;7.17;;;;;;;23.71;54.42;94512.34;6160382;28;105276;-54
2022/06/11 03:58:30;;;;;;;9.00;8.40;;;;;;;23.72;54.34;94516.56;6148005;28;103182;-54
2022/06/11 04:01:34;;;;;;;8.77;8.17;;;;;;;23.71;54.59;94513.13;6139333;28;104351;-54
2022/06/11 04:04:37;;;;;;;9.00;8.40;;;;;;;23.71;54.27;94513.13;6154729;28;103527;-54
2022/06/11 04:07:42;;;;;;;9.57;8.77;;;;;;;23.75;54.59;94518.56;6158687;28;104101;-54
2022/06/11 04:10:46;;;;;;;9.73;8.93;;;;;;;23.75;54.04;94516.69;6158944;28;104278;-53
2022/06/11 04:13:51;;;;;;;8.97;8.37;;;;;;;23.77;54.96;94521.69;6149427;28;104227;-54
2022/06/11 04:16:57;;;;;;;8.77;8.00;;;;;;;23.78;54.82;94525.94;6155462;28;103139;-54
2022/06/11 04:20:00;;;;;;;9.10;8.20;;;;;;;23.80;54.54;94534.38;6159193;28;103755;-54
2022/06/11 04:23:05;;;;;;;8.90;8.30;;;;;;;23.80;54.54;94529.81;6157573;28;103212;-54
2022/06/11 04:26:11;;;;;;;11.23;9.67;;;;;;;23.77;55.29;94535.06;6137798;28;104017;-53
2022/06/11 04:29:18;;;;;;;9.53;8.73;;;;;;;23.73;55.14;94532.25;6155263;28;103172;-54
2022/06/11 04:32:22;;;;;;;9.00;8.20;;;;;;;23.73;54.79;94529.59;6153541;28;102983;-54
2022/06/11 04:35:25;;;;;;;12.30;11.40;;;;;;;23.76;54.02;94536.94;6151881;28;103359;-53
2022/06/11 04:38:30;;;;;;;9.80;9.10;;;;;;;23.79;55.13;94536.28;6152103;28;104238;-54
2022/06/11 04:41:33;;;;;;;11.10;10.10;;;;;;;23.74;55.49;94539.16;6159944;28;104305;-55
2022/06/11 04:44:37;;;;;;;10.43;9.30;;;;;;;23.71;55.90;94539.81;6158534;28;104066;-54
2022/06/11 04:47:40;;;;;;;8.97;8.17;;;;;;;23.77;55.44;94535.06;6142370;28;104017;-54
2022/06/11 04:50:43;;;;;;;14.60;11.30;;;;;;;23.62;55.92;94543.66;6152947;28;103315;-54
2022/06/11 04:53:48;;;;;;;11.77;10.67;;;;;;;23.69;55.33;94550.06;6152027;28;103151;-54
2022/06/11 04:56:51;;;;;;;9.90;9.10;;;;;;;23.77;55.39;94551.88;6152727;28;102915;-55
2022/06/11 04:59:55;;;;;;;10.20;9.47;;;;;;;23.82;55.22;94557.00;6151706;28;103511;-54
2022/06/11 05:02:58;;;;;;;11.03;10.23;;;;;;;23.84;54.97;94562.78;6143454;28;103807;-54
2022/06/11 05:06:01;;;;;;;11.73;10.80;;;;;;;23.85;56.12;94555.56;6151350;28;103042;-54
2022/06/11 05:09:07;;;;;;;10.83;9.93;;;;;;;23.67;56.08;94554.94;6162160;28;103249;-54
2022/06/11 05:12:11;;;;;;;10.83;9.93;;;;;;;23.77;56.71;94561.78;6143824;28;104160;-52
2022/06/11 05:15:14;;;;;;;9.83;9.13;;;;;;;23.78;55.98;94569.47;6143982;28;103295;-53
2022/06/11 05:18:18;;;;;;;9.40;8.50;;;;;;;23.84;56.08;94562.00;6163035;28;103127;-53
2022/06/11 05:21:22;;;;;;;9.27;8.47;;;;;;;23.88;55.74;94569.06;6151887;28;103530;-55
2022/06/11 05:24:29;;;;;;;8.93;8.20;;;;;;;23.92;55.88;94573.75;6139321;28;103791;-54
2022/06/11 05:27:33;;;;;;;7.90;7.10;;;;;;;23.80;55.01;94572.56;6152860;28;103340;-55
2022/06/11 05:30:36;;;;;;;8.30;7.60;;;;;;;23.87;56.50;94577.41;6146887;28;103234;-55
2022/06/11 05:33:40;;;;;;;8.33;7.70;;;;;;;23.94;57.72;94582.22;6142312;28;104056;-54
2022/06/11 05:36:43;;;;;;;8.57;7.80;;;;;;;23.92;57.40;94595.13;6142640;28;103206;-54
2022/06/11 05:39:48;;;;;;;8.70;7.83;;;;;;;23.93;56.63;94588.66;6136510;28;104182;-54
2022/06/11 05:42:54;;;;;;;7.63;6.90;;;;;;;23.93;56.11;94594.78;6161506;28;103111;-53
2022/06/11 05:46:03;;;;;;;13.77;6.37;;;;;;;23.89;55.94;94596.56;6150071;28;103605;-53
2022/06/11 05:49:15;;;;;;;11.33;7.10;;;;;;;23.91;58.17;94597.03;6149920;28;103649;-59
2022/06/11 05:52:26;;;;;;;10.07;9.10;;;;;;;23.82;57.83;94604.31;6152063;28;103593;-56
2022/06/11 05:55:35;;;;;;;12.03;8.90;;;;;;;23.77;57.86;94607.97;6148888;28;104822;-56
2022/06/11 05:58:44;;;;;;;29.53;26.57;;;;;;;23.65;57.34;94607.13;6156750;28;103210;-56
2022/06/11 06:01:48;;;;;;;113.63;69.27;;;;;;;23.23;56.01;94610.53;6152845;28;102977;-55
2022/06/11 06:04:52;;;;;;;43.83;28.60;;;;;;;23.12;57.35;94612.00;6152427;28;103949;-55
2022/06/11 06:07:55;;;;;;;26.97;18.33;;;;;;;23.14;56.82;94612.44;6141543;28;102991;-54
2022/06/11 06:11:00;;;;;;;27.47;15.30;;;;;;;22.98;57.40;94612.22;6152450;28;104104;-55
2022/06/11 06:14:03;;;;;;;15.00;9.90;;;;;;;22.75;58.10;94613.59;6159544;28;103087;-54
2022/06/11 06:17:06;;;;;;;11.00;9.80;;;;;;;23.03;57.19;94615.81;6156008;28;103426;-54
2022/06/11 06:20:30;;;;;;;26.67;24.17;;;;;;;23.22;57.25;94626.88;6139577;28;105056;-54
2022/06/11 06:23:33;;;;;;;24.27;21.10;;;;;;;23.47;56.50;94622.50;6157264;28;103342;-54
2022/06/11 06:26:38;;;;;;;16.77;15.10;;;;;;;23.65;56.99;94623.94;6154429;28;104219;-54
2022/06/11 06:29:41;;;;;;;20.33;18.23;;;;;;;23.78;58.06;94619.44;6135421;28;102830;-55
2022/06/11 06:32:44;;;;;;;22.70;19.90;;;;;;;23.85;57.81;94623.13;6156555;28;103559;-54
2022/06/11 06:35:47;;;;;;;18.90;17.00;;;;;;;23.89;57.95;94631.31;6153695;28;103065;-54
2022/06/11 06:38:51;;;;;;;20.53;18.33;;;;;;;23.91;57.87;94637.09;6154559;28;103375;-52
2022/06/11 06:41:56;;;;;;;17.07;15.27;;;;;;;23.93;57.14;94637.56;6144618;28;103656;-52
2022/06/11 06:44:59;;;;;;;17.50;14.67;;;;;;;23.97;57.58;94635.78;6159415;28;103282;-53
2022/06/11 06:48:02;;;;;;;11.30;10.40;;;;;;;23.86;56.67;94624.72;6156877;28;103086;-53
2022/06/11 06:51:06;;;;;;;12.53;11.23;;;;;;;23.90;56.66;94636.31;6143067;28;103486;-53
2022/06/11 06:54:09;;;;;;;7.27;6.67;;;;;;;23.82;56.29;94639.84;6147212;28;103441;-54
2022/06/11 06:57:13;;;;;;;9.77;8.77;;;;;;;23.94;56.73;94636.44;6151877;28;104242;-54
2022/06/11 07:00:17;;;;;;;9.23;8.43;;;;;;;24.01;56.83;94638.59;6139999;28;104715;-57
2022/06/11 07:03:20;;;;;;;9.10;8.30;;;;;;;23.98;55.95;94641.91;6149775;28;103635;-53
2022/06/11 07:06:25;;;;;;;9.70;8.70;;;;;;;24.01;56.59;94633.25;6158319;28;104153;-52
2022/06/11 07:09:28;;;;;;;10.83;9.83;;;;;;;24.00;56.08;94634.38;6146907;28;104297;-52
2022/06/11 07:12:33;;;;;;;9.93;9.10;;;;;;;24.01;55.80;94631.38;6150792;28;103195;-52
2022/06/11 07:15:36;;;;;;;9.57;8.77;;;;;;;24.04;56.25;94641.44;6148978;28;103060;-53
2022/06/11 07:18:43;;;;;;;8.50;7.80;;;;;;;24.04;56.07;94643.31;6152145;28;103029;-53
2022/06/11 07:21:50;;;;;;;6.90;6.23;;;;;;;24.07;55.57;94643.44;6134233;28;103790;-53
2022/06/11 07:24:53;;;;;;;6.73;6.23;;;;;;;24.04;54.98;94648.66;6156907;28;104115;-51
2022/06/11 07:28:02;;;;;;;6.50;5.90;;;;;;;24.05;55.40;94647.56;6147826;28;103352;-53
2022/06/11 07:31:05;;;;;;;6.43;5.83;;;;;;;24.09;55.27;94645.78;6146501;28;104084;-51
2022/06/11 07:34:09;;;;;;;5.73;5.10;;;;;;;24.11;55.10;94647.03;6143559;28;103041;-55
2022/06/11 07:37:13;;;;;;;10.30;5.07;;;;;;;23.87;54.62;94658.34;6153804;28;103402;-54
2022/06/11 07:40:18;;;;;;;5.93;5.00;;;;;;;23.92;54.49;94648.56;6139655;28;103282;-53
2022/06/11 07:43:23;;;;;;;7.63;5.33;;;;;;;23.81;55.00;94662.31;6152430;28;103095;-54
2022/06/11 07:46:26;;;;;;;16.30;14.10;;;;;;;23.81;54.87;94666.88;6154176;28;104069;-54
2022/06/11 07:49:30;;;;;;;14.60;9.00;;;;;;;23.78;54.87;94672.88;6140585;28;103990;-55
2022/06/11 07:52:33;;;;;;;7.57;6.60;;;;;;;23.87;54.78;94669.06;6149922;28;103654;-53
2022/06/11 07:55:37;;;;;;;10.83;7.63;;;;;;;23.96;54.06;94666.28;6149972;28;103274;-53
2022/06/11 07:58:42;;;;;;;9.30;7.67;;;;;;;24.03;54.27;94661.25;6148269;28;102974;-53
2022/06/11 08:01:45;;;;;;;12.10;10.50;;;;;;;24.11;54.89;94652.38;6141295;28;103418;-53
2022/06/11 08:04:48;;;;;;;26.23;15.03;;;;;;;24.16;55.76;94652.16;6144139;28;104065;-53
2022/06/11 08:07:52;;;;;;;19.10;14.57;;;;;;;24.21;56.27;94651.19;6155454;28;103322;-54
2022/06/11 08:10:56;;;;;;;18.07;11.90;;;;;;;24.25;56.26;94651.31;6148403;28;103452;-54
2022/06/11 08:14:00;;;;;;;16.40;10.13;;;;;;;24.31;55.71;94645.41;6148959;28;103175;-53
2022/06/11 08:17:04;;;;;;;13.53;10.27;;;;;;;24.34;55.86;94646.66;6156735;28;104286;-53
2022/06/11 08:20:08;;;;;;;11.00;9.00;;;;;;;24.32;55.69;94652.31;6143341;28;104073;-53
2022/06/11 08:23:11;;;;;;;12.07;9.17;;;;;;;24.31;55.47;94656.13;6145131;28;103177;-53
2022/06/11 08:26:15;;;;;;;13.93;8.20;;;;;;;24.31;55.53;94652.66;6156695;28;104080;-53
2022/06/11 08:29:20;;;;;;;11.80;9.30;;;;;;;24.31;55.82;94650.00;6144809;28;103187;-52
2022/06/11 08:32:27;;;;;;;9.73;8.83;;;;;;;24.33;55.60;94643.19;6156407;28;103173;-53
2022/06/11 08:35:36;;;;;;;9.90;8.90;;;;;;;24.36;55.41;94645.22;6150932;28;104772;-54
2022/06/11 08:38:40;;;;;;;9.20;8.30;;;;;;;24.36;55.36;94642.56;6156194;28;103265;-53
2022/06/11 08:41:44;;;;;;;9.10;8.17;;;;;;;24.35;55.50;94645.53;6150683;28;104232;-53
2022/06/11 08:44:48;;;;;;;11.10;9.23;;;;;;;24.36;55.56;94645.22;6145851;28;103120;-54
2022/06/11 08:47:55;;;;;;;10.10;9.27;;;;;;;24.35;55.51;94640.97;6147257;28;105420;-53
2022/06/11 08:51:13;;;;;;;12.43;11.53;;;;;;;24.27;55.41;94633.81;6146687;28;103410;-53
2022/06/11 08:54:20;;;;;;;12.57;11.30;;;;;;;24.34;55.54;94633.28;6145844;28;103222;-52
2022/06/11 08:57:32;;;;;;;12.83;11.70;;;;;;;24.34;55.34;94636.72;6137725;28;103498;-53
2022/06/11 09:00:44;;;;;;;13.70;12.50;;;;;;;24.35;55.42;94634.84;6148093;28;103434;-53
2022/06/11 09:04:01;;;;;;;11.83;10.83;;;;;;;24.33;55.36;94637.84;6150822;28;103518;-54
2022/06/11 09:07:31;;;;;;;12.90;11.60;;;;;;;24.35;55.32;94634.84;6140593;28;103056;-53
2022/06/11 09:10:53;;;;;;;12.83;11.63;;;;;;;24.29;55.37;94618.22;6127675;28;105637;-53
2022/06/11 09:14:29;;;;;;;12.80;11.67;;;;;;;24.37;55.56;94628.06;6147882;28;103075;-53
2022/06/11 09:17:52;;;;;;;12.77;11.67;;;;;;;24.38;55.44;94634.19;6157715;28;103153;-53
2022/06/11 09:21:08;;;;;;;13.10;11.80;;;;;;;24.34;55.23;94634.06;6138728;28;103361;-53
2022/06/11 09:24:28;;;;;;;15.23;12.77;;;;;;;24.41;55.44;94628.19;6155121;28;103830;-54
2022/06/11 09:27:39;;;;;;;15.20;12.53;;;;;;;24.39;55.09;94628.53;6153200;28;104226;-53
2022/06/11 09:30:46;;;;;;;13.40;11.57;;;;;;;24.41;55.57;94628.97;6143534;28;104189;-51
2022/06/11 09:33:58;;;;;;;15.80;11.50;;;;;;;24.41;55.58;94628.97;6128272;28;103237;-51
2022/06/11 09:37:08;;;;;;;17.37;12.20;;;;;;;24.41;55.11;94636.22;6138357;28;103249;-53
2022/06/11 09:40:24;;;;;;;22.43;11.90;;;;;;;24.42;55.22;94641.22;6139296;28;104310;-52
2022/06/11 09:43:36;;;;;;;17.07;12.30;;;;;;;24.42;55.12;94635.88;6124649;28;103110;-53
2022/06/11 09:46:45;;;;;;;16.27;11.60;;;;;;;24.39;54.94;94636.53;6141526;28;103053;-54
2022/06/11 09:50:02;;;;;;;10.83;9.60;;;;;;;24.37;54.83;94640.66;6140316;28;103181;-54
2022/06/11 09:53:33;;;;;;;13.20;10.27;;;;;;;24.35;54.49;94653.56;6137105;28;102958;-53
2022/06/11 09:56:45;;;;;;;10.90;9.23;;;;;;;24.32;54.81;94649.66;6143964;28;104441;-53
2022/06/11 09:59:52;;;;;;;8.20;7.47;;;;;;;24.31;54.27;94650.00;6134319;28;103547;-52
2022/06/11 10:03:09;;;;;;;8.77;7.90;;;;;;;24.31;54.51;94655.34;6136869;28;103178;-53
2022/06/11 10:06:19;;;;;;;8.03;7.23;;;;;;;24.30;54.42;94662.56;6127452;28;103301;-53
2022/06/11 10:09:27;;;;;;;7.67;6.97;;;;;;;24.30;54.48;94661.78;6138796;28;103361;-53
2022/06/11 10:12:36;;;;;;;8.43;7.50;;;;;;;24.28;54.91;94656.78;6137882;28;103787;-52
2022/06/11 10:15:42;;;;;;;8.37;7.67;;;;;;;24.29;55.40;94660.22;6153688;28;103082;-52
2022/06/11 10:18:48;;;;;;;7.07;6.57;;;;;;;24.28;55.55;94651.44;6149997;28;104012;-52
2022/06/11 10:21:59;;;;;;;7.80;7.17;;;;;;;24.26;55.41;94648.31;6132926;28;103288;-53
2022/06/11 10:25:21;;;;;;;7.47;6.83;;;;;;;24.27;55.58;94660.56;6155952;28;103229;-53
2022/06/11 10:28:31;;;;;;;8.57;7.87;;;;;;;24.27;55.36;94655.22;6135307;28;103538;-52
2022/06/11 10:31:40;;;;;;;9.03;7.73;;;;;;;24.28;55.48;94662.13;6153721;28;103153;-53
2022/06/11 10:34:48;;;;;;;7.33;6.83;;;;;;;24.27;55.75;94671.25;6160077;28;103268;-53
2022/06/11 10:37:59;;;;;;;8.57;7.90;;;;;;;24.27;55.59;94681.19;6143438;28;103160;-54
2022/06/11 10:41:08;;;;;;;8.03;7.43;;;;;;;24.24;54.90;94693.31;6137511;28;103148;-53
2022/06/11 10:44:24;;;;;;;8.00;7.20;;;;;;;24.24;55.36;94687.97;6146705;28;103229;-50
2022/06/11 10:47:30;;;;;;;12.33;6.97;;;;;;;24.26;55.55;94684.97;6149056;28;103004;-57
2022/06/11 10:50:36;;;;;;;7.40;6.80;;;;;;;24.25;55.63;94684.19;6135360;28;103225;-50
2022/06/11 10:53:53;;;;;;;6.83;6.23;;;;;;;24.27;55.43;94691.88;6143053;28;105546;-49
2022/06/11 10:56:59;;;;;;;7.10;6.50;;;;;;;24.27;55.12;94683.84;6153900;28;103180;-49
2022/06/11 11:00:08;;;;;;;6.50;6.00;;;;;;;24.26;54.90;94685.75;6150878;28;104052;-49
2022/06/11 11:03:18;;;;;;;6.10;5.70;;;;;;;24.27;55.48;94681.97;6138587;28;102991;-50
2022/06/11 11:06:27;;;;;;;6.17;5.60;;;;;;;24.29;55.22;94686.97;6151631;28;103203;-50
2022/06/11 11:09:32;;;;;;;5.40;5.00;;;;;;;24.27;55.04;94681.97;6155635;28;103963;-49
2022/06/11 11:12:37;;;;;;;5.10;4.70;;;;;;;24.27;55.24;94681.19;6150254;28;104085;-49
2022/06/11 11:15:45;;;;;;;4.77;4.47;;;;;;;24.27;54.96;94681.97;6134187;28;103264;-50
2022/06/11 11:19:01;;;;;;;5.63;5.13;;;;;;;24.29;55.09;94690.44;6147638;28;103089;-49
2022/06/11 11:22:12;;;;;;;5.13;4.73;;;;;;;24.27;55.20;94687.31;6158932;28;102976;-49
2022/06/11 11:25:25;;;;;;;4.93;4.53;;;;;;;24.29;54.96;94690.44;6153014;28;102970;-50
2022/06/11 11:28:31;;;;;;;4.77;4.10;;;;;;;24.30;54.71;94686.66;6157042;28;103065;-49
2022/06/11 11:31:42;;;;;;;5.30;3.87;;;;;;;24.31;54.41;94684.75;6152695;28;103173;-50
2022/06/11 11:34:49;;;;;;;4.10;3.80;;;;;;;24.30;54.55;94688.53;6153586;28;103187;-49
2022/06/11 11:38:00;;;;;;;4.80;4.50;;;;;;;24.30;54.65;94683.19;6131998;28;103636;-49
2022/06/11 11:41:05;;;;;;;4.00;3.70;;;;;;;24.29;54.39;94685.09;6160040;28;103181;-50
2022/06/11 11:44:17;;;;;;;4.20;3.90;;;;;;;24.26;54.43;94680.41;6159292;28;103138;-50
2022/06/11 11:47:26;;;;;;;4.30;4.00;;;;;;;24.27;54.34;94687.31;6157313;28;104963;-51
2022/06/11 11:50:33;;;;;;;4.30;4.00;;;;;;;24.29;54.41;94678.94;6154149;28;103121;-50
2022/06/11 11:53:42;;;;;;;3.93;3.63;;;;;;;24.27;54.10;94679.28;6160310;28;104366;-50
2022/06/11 11:56:51;;;;;;;4.30;3.90;;;;;;;24.29;54.61;94679.72;6158384;28;104600;-48
2022/06/11 11:59:59;;;;;;;4.13;3.57;;;;;;;24.32;54.82;94675.63;6147664;28;103193;-49
2022/06/11 12:03:06;;;;;;;3.30;3.00;;;;;;;24.31;54.77;94674.84;6159962;28;103225;-52
2022/06/11 12:06:13;;;;;;;4.33;3.93;;;;;;;24.33;54.58;94671.84;6158707;28;103096;-50
2022/06/11 12:09:26;;;;;;;3.70;3.40;;;;;;;24.34;54.36;94676.06;6146439;28;104413;-49
2022/06/11 12:12:32;;;;;;;3.87;3.57;;;;;;;24.34;54.41;94674.16;6152563;28;103168;-49
2022/06/11 12:15:35;;;;;;;4.10;3.80;;;;;;;24.34;54.26;94671.50;6164678;28;104404;-49
2022/06/11 12:18:43;;;;;;;4.10;3.80;;;;;;;24.35;54.28;94664.25;6159938;28;102981;-49
2022/06/11 12:21:51;;;;;;;3.60;3.40;;;;;;;24.36;54.44;94663.94;6158717;28;103389;-49
2022/06/11 12:24:56;;;;;;;3.90;3.60;;;;;;;24.36;54.38;94663.94;6148959;28;103541;-50
2022/06/11 12:28:02;;;;;;;3.43;3.23;;;;;;;24.36;54.40;94653.25;6151748;28;103320;-50
2022/06/11 12:31:05;;;;;;;4.10;3.80;;;;;;;24.36;54.53;94658.59;6161163;28;103261;-50
2022/06/11 12:34:13;;;;;;;3.97;3.67;;;;;;;24.35;54.56;94662.38;6152891;28;105062;-52
2022/06/11 12:37:22;;;;;;;3.97;3.70;;;;;;;24.35;54.45;94662.38;6163303;28;103007;-52
2022/06/11 12:40:33;;;;;;;3.90;3.60;;;;;;;24.37;54.61;94659.38;6159887;28;102926;-51
2022/06/11 12:43:50;;;;;;;4.10;3.80;;;;;;;24.35;54.46;94654.34;6146469;28;103312;-52
2022/06/11 12:47:00;;;;;;;3.80;3.60;;;;;;;24.32;54.16;94656.91;6139631;28;104075;-51
2022/06/11 12:50:19;;;;;;;3.10;2.90;;;;;;;24.27;53.60;94660.56;6149902;28;103476;-51
2022/06/11 12:53:35;;;;;;;3.10;2.90;;;;;;;24.23;53.59;94662.34;6155360;28;103051;-53
2022/06/11 12:56:55;;;;;;;3.20;3.00;;;;;;;24.20;53.44;94668.34;6146957;28;104615;-53
2022/06/11 13:00:14;;;;;;;3.13;2.93;;;;;;;24.17;53.83;94666.31;6153730;28;104034;-51
2022/06/11 13:03:46;;;;;;;3.20;3.00;;;;;;;24.19;53.18;94672.09;6161363;28;104296;-51
2022/06/11 13:07:00;;;;;;;3.63;3.40;;;;;;;24.16;53.38;94680.78;6110254;28;103354;-52
2022/06/11 13:10:27;;;;;;;3.60;3.40;;;;;;;24.19;53.40;94678.25;6143373;28;103528;-51
2022/06/11 13:13:45;;;;;;;3.67;3.37;;;;;;;24.18;53.46;94678.56;6155642;28;103085;-51
2022/06/11 13:17:03;;;;;;;3.13;2.93;;;;;;;24.22;53.07;94684.84;6148705;28;104174;-52
2022/06/11 13:20:15;;;;;;;3.87;3.57;;;;;;;24.25;53.05;94694.88;6129183;28;104374;-51
2022/06/11 13:23:26;;;;;;;3.40;3.20;;;;;;;24.24;53.03;94697.88;6156559;28;104514;-51
2022/06/11 13:26:39;;;;;;;3.77;3.47;;;;;;;24.23;53.13;94713.16;6138488;28;103004;-51
2022/06/11 13:29:54;;;;;;;3.40;3.20;;;;;;;24.23;53.54;94718.50;6149329;28;104229;-51
2022/06/11 13:33:04;;;;;;;4.30;4.00;;;;;;;24.22;53.11;94716.94;6153892;28;104118;-51
2022/06/11 13:36:15;;;;;;;3.93;3.63;;;;;;;24.15;53.31;94716.66;6148902;28;103336;-51
2022/06/11 13:39:35;;;;;;;4.00;3.50;;;;;;;24.14;53.49;94715.09;6145439;28;104154;-51
2022/06/11 13:42:50;;;;;;;4.27;3.97;;;;;;;24.14;53.60;94715.09;6142230;28;104056;-55
2022/06/11 13:45:58;;;;;;;3.87;3.57;;;;;;;24.26;53.21;94711.69;6140558;28;103027;-54
2022/06/11 13:49:24;;;;;;;3.83;3.53;;;;;;;24.31;53.24;94708.81;6140879;28;103085;-53
2022/06/11 13:55:55;;;;;;;4.30;3.90;;;;;;;24.33;53.84;94702.03;6132097;28;104080;-52
2022/06/11 13:59:18;;;;;;;4.10;3.80;;;;;;;24.33;53.76;94693.22;6149742;28;103198;-53
2022/06/11 14:02:49;;;;;;;4.97;4.47;;;;;;;24.35;53.87;94693.69;6147092;28;103548;-56
2022/06/11 14:05:56;;;;;;;4.87;4.57;;;;;;;24.34;53.44;94684.88;6134087;28;103938;-54
2022/06/11 14:10:20;;;;;;;5.27;4.77;;;;;;;24.36;53.67;94687.22;6158737;28;103146;-52
2022/06/11 14:12:49;;;;;;;4.90;4.50;;;;;;;24.36;53.93;94679.19;6139530;28;103196;-53
2022/06/11 14:15:53;;;;;;;4.70;4.30;;;;;;;24.35;53.94;94675.72;6147123;28;104099;-55
2022/06/11 14:18:56;;;;;;;5.10;4.70;;;;;;;24.36;53.73;94682.69;6153800;28;103993;-55
2022/06/11 14:22:01;;;;;;;5.13;4.73;;;;;;;24.37;53.67;94692.25;6154509;28;103438;-54
2022/06/11 14:25:04;;;;;;;4.60;4.30;;;;;;;24.37;53.87;94689.59;6159132;28;103094;-54
2022/06/11 14:28:53;;;;;;;6.00;5.40;;;;;;;24.37;53.77;94689.59;6148630;28;104687;-53
2022/06/11 14:32:01;;;;;;;5.57;5.13;;;;;;;24.37;53.79;94689.59;6142477;28;103310;-52
2022/06/11 14:35:20;;;;;;;4.57;4.27;;;;;;;24.38;53.97;94693.03;6156641;28;104039;-53